Ashland, Pennsylvania
Current Conditions -  °F | °C
As of 12:35 AM on Monday 20 Oct 2014 (Local Time) from KHZL Reporting Station
Clear Clear  
Wind Chill:   Ceiling: Unl
Heat Index:   Visibility: 10mi
Dew Point: -2°   Wind: 5mph
Humidity: 75%   Direction: 330°NNW
Pressure: 30.07"   Gusts: NA
Location:  40.78°N, 76.35°W
Report Text: KHZL 200435Z AUTO 33004KT 10SM CLR 02/M02 A3007 RMK AO2
Loading
Personal Weather Stations






























Interactive Weather Map
Tropical Storm Tracking
New forecast layout! Learn more

10-Day Weather Forecast

Advertisements
Track Severe Weather on mobile